createdAt,value
2023-01-20T00:01:46.580Z,11.13
2023-01-20T00:04:19.244Z,11.87
2023-01-20T00:06:49.463Z,11.27
2023-01-20T00:09:19.422Z,11.00
2023-01-20T00:11:48.658Z,11.67
2023-01-20T00:14:17.372Z,11.87
2023-01-20T00:16:46.395Z,11.57
2023-01-20T00:19:15.613Z,12.20
2023-01-20T00:21:44.496Z,11.67
2023-01-20T00:24:14.516Z,11.40
2023-01-20T00:26:43.133Z,12.00
2023-01-20T00:29:11.962Z,11.43
2023-01-20T00:31:40.713Z,12.47
2023-01-20T00:34:11.030Z,12.00
2023-01-20T00:36:39.664Z,12.30
2023-01-20T00:39:08.304Z,11.57
2023-01-20T00:41:38.399Z,12.03
2023-01-20T00:44:07.187Z,12.00
2023-01-20T00:46:35.729Z,12.20
2023-01-20T00:49:04.454Z,12.03
2023-01-20T00:51:33.171Z,11.03
2023-01-20T00:54:01.891Z,11.83
2023-01-20T00:56:30.521Z,12.40
2023-01-20T00:59:00.553Z,12.33
2023-01-20T01:01:29.397Z,13.20
2023-01-20T01:03:58.018Z,12.57
2023-01-20T01:06:26.684Z,12.70
2023-01-20T01:08:55.403Z,12.67
2023-01-20T01:11:24.181Z,11.97
2023-01-20T01:13:52.909Z,12.90
2023-01-20T01:16:23.268Z,12.50
2023-01-20T01:18:54.700Z,12.43
2023-01-20T01:21:23.595Z,12.67
2023-01-20T01:23:54.074Z,12.63
2023-01-20T01:26:22.928Z,13.43
2023-01-20T01:28:52.212Z,12.47
2023-01-20T01:31:23.141Z,12.57
2023-01-20T01:33:51.772Z,13.50
2023-01-20T01:36:20.593Z,13.20
2023-01-20T01:38:57.603Z,12.60
2023-01-20T01:41:28.340Z,13.20
2023-01-20T01:44:07.144Z,13.33
2023-01-20T01:46:37.767Z,12.83
2023-01-20T01:49:09.484Z,12.67
2023-01-20T01:51:41.781Z,12.57
2023-01-20T01:54:14.373Z,12.93
2023-01-20T01:56:44.878Z,12.57
2023-01-20T01:59:15.436Z,12.80
2023-01-20T02:01:50.829Z,12.83
2023-01-20T02:04:22.253Z,12.73
2023-01-20T02:06:53.895Z,12.57
2023-01-20T02:09:23.281Z,12.87
2023-01-20T02:11:54.908Z,12.57
2023-01-20T02:14:27.460Z,12.97
2023-01-20T02:17:04.519Z,13.10
2023-01-20T02:20:08.224Z,13.23
2023-01-20T02:22:44.020Z,11.53
2023-01-20T02:25:30.897Z,12.30
2023-01-20T02:28:37.299Z,12.03
2023-01-20T02:31:37.128Z,11.50
2023-01-20T02:34:16.546Z,11.43
2023-01-20T02:36:49.555Z,11.73
2023-01-20T02:39:27.324Z,12.47
2023-01-20T02:42:02.053Z,12.00
2023-01-20T02:44:37.322Z,12.57
2023-01-20T02:47:32.632Z,11.60
2023-01-20T02:50:09.486Z,11.93
2023-01-20T02:52:40.900Z,11.93
2023-01-20T02:55:13.485Z,12.43
2023-01-20T02:57:46.523Z,12.60
2023-01-20T03:00:19.079Z,11.97
2023-01-20T03:02:49.721Z,12.40
2023-01-20T03:05:23.004Z,12.73
2023-01-20T03:07:53.283Z,11.90
2023-01-20T03:10:26.624Z,11.73
2023-01-20T03:12:58.610Z,12.20
2023-01-20T03:15:34.543Z,11.87
2023-01-20T03:18:03.388Z,12.63
2023-01-20T03:20:33.761Z,13.07
2023-01-20T03:23:02.497Z,12.30
2023-01-20T03:25:31.651Z,12.60
2023-01-20T03:28:00.450Z,12.60
2023-01-20T03:30:29.391Z,12.87
2023-01-20T03:32:58.195Z,12.13
2023-01-20T03:35:27.111Z,12.33
2023-01-20T03:37:57.705Z,12.80
2023-01-20T03:40:30.634Z,12.90
2023-01-20T03:43:07.995Z,12.30
2023-01-20T03:45:44.002Z,12.10
2023-01-20T03:48:20.512Z,12.87
2023-01-20T03:50:55.991Z,13.13
2023-01-20T03:53:33.294Z,13.60
2023-01-20T03:56:06.430Z,15.33
2023-01-20T03:58:38.774Z,16.30
2023-01-20T04:01:18.192Z,16.20
2023-01-20T04:03:50.368Z,16.10
2023-01-20T04:06:22.019Z,15.77
2023-01-20T04:08:57.114Z,15.77
2023-01-20T04:11:26.260Z,17.47
2023-01-20T04:13:55.076Z,16.80
2023-01-20T04:16:25.712Z,17.03
2023-01-20T04:18:55.034Z,16.93
2023-01-20T04:21:28.572Z,18.33
2023-01-20T04:24:03.547Z,17.73
2023-01-20T04:26:32.224Z,18.33
2023-01-20T04:29:10.455Z,17.33
2023-01-20T04:31:40.709Z,18.13
2023-01-20T04:34:12.432Z,18.40
2023-01-20T04:36:41.288Z,18.73
2023-01-20T04:39:11.447Z,18.90
2023-01-20T04:41:40.248Z,18.43
2023-01-20T04:44:09.119Z,18.23
2023-01-20T04:46:38.005Z,18.47
2023-01-20T04:49:06.843Z,18.93
2023-01-20T04:51:35.700Z,19.10
2023-01-20T04:54:04.424Z,18.77
2023-01-20T04:56:34.862Z,18.20
2023-01-20T04:59:03.601Z,19.23
2023-01-20T05:01:32.275Z,18.47
2023-01-20T05:04:01.011Z,18.87
2023-01-20T05:06:29.652Z,18.97
2023-01-20T05:08:58.341Z,19.43
2023-01-20T05:11:27.222Z,18.30
2023-01-20T05:13:57.294Z,19.10
2023-01-20T05:16:26.169Z,19.17
2023-01-20T05:18:55.919Z,20.00
2023-01-20T05:21:24.817Z,18.27
2023-01-20T05:24:11.615Z,18.93
2023-01-20T05:26:40.072Z,19.00
2023-01-20T05:29:10.461Z,19.17
2023-01-20T05:31:43.492Z,18.57
2023-01-20T05:34:12.763Z,18.37
2023-01-20T05:36:41.397Z,18.80
2023-01-20T05:39:09.963Z,19.33
2023-01-20T05:41:38.665Z,20.63
2023-01-20T05:44:07.774Z,20.40
2023-01-20T05:46:37.972Z,19.83
2023-01-20T05:49:07.701Z,20.67
2023-01-20T05:51:36.213Z,20.83
2023-01-20T05:54:05.098Z,21.00
2023-01-20T05:56:33.781Z,22.40
2023-01-20T05:59:02.463Z,21.10
2023-01-20T06:01:31.235Z,20.70
2023-01-20T06:04:01.444Z,20.87
2023-01-20T06:06:30.237Z,20.03
2023-01-20T06:08:59.027Z,21.77
2023-01-20T06:11:27.814Z,21.47
2023-01-20T06:13:56.400Z,19.47
2023-01-20T06:16:25.633Z,21.27
2023-01-20T06:18:54.368Z,20.20
2023-01-20T06:21:25.006Z,20.57
2023-01-20T06:23:55.210Z,21.43
2023-01-20T06:26:23.893Z,20.63
2023-01-20T06:28:52.447Z,21.23
2023-01-20T06:31:21.163Z,21.43
2023-01-20T06:33:49.729Z,21.40
2023-01-20T06:36:18.387Z,20.90
2023-01-20T06:39:13.703Z,20.80
2023-01-20T06:41:42.259Z,21.53
2023-01-20T06:44:11.043Z,21.37
2023-01-20T06:46:39.662Z,21.27
2023-01-20T06:49:08.392Z,21.50
2023-01-20T06:51:41.998Z,21.90
2023-01-20T06:54:10.690Z,20.23
2023-01-20T06:56:40.702Z,20.80
2023-01-20T06:59:10.661Z,20.67
2023-01-20T07:01:39.434Z,21.00
2023-01-20T07:04:08.396Z,21.23
2023-01-20T07:06:39.641Z,20.53
2023-01-20T07:09:09.766Z,21.03
2023-01-20T07:11:38.479Z,19.77
2023-01-20T07:14:11.025Z,21.03
2023-01-20T07:16:42.480Z,21.47
2023-01-20T07:19:11.633Z,22.13
2023-01-20T07:21:40.545Z,22.37
2023-01-20T07:24:11.270Z,22.03
2023-01-20T07:26:39.939Z,22.27
2023-01-20T07:29:10.307Z,21.23
2023-01-20T07:31:40.429Z,22.70
2023-01-20T07:34:09.240Z,23.40
2023-01-20T07:36:37.966Z,22.10
2023-01-20T07:39:06.776Z,23.70
2023-01-20T07:41:35.783Z,23.73
2023-01-20T07:44:04.818Z,23.93
2023-01-20T07:46:35.083Z,22.70
2023-01-20T07:49:03.876Z,21.70
2023-01-20T07:51:32.745Z,22.77
2023-01-20T07:54:03.168Z,23.43
2023-01-20T07:56:32.168Z,23.47
2023-01-20T07:59:01.127Z,23.80
2023-01-20T08:01:32.311Z,21.80
2023-01-20T08:04:03.345Z,21.63
2023-01-20T08:06:33.204Z,20.17
2023-01-20T08:09:02.728Z,21.50
2023-01-20T08:11:32.261Z,21.43
2023-01-20T08:14:01.105Z,21.87
2023-01-20T08:16:30.010Z,21.27
2023-01-20T08:18:58.751Z,21.20
2023-01-20T08:21:30.727Z,20.53
2023-01-20T08:24:00.803Z,22.17
2023-01-20T08:26:30.818Z,21.13
2023-01-20T08:29:04.398Z,20.23
2023-01-20T08:31:33.262Z,20.30
2023-01-20T08:34:02.113Z,19.77
2023-01-20T08:36:36.342Z,20.73
2023-01-20T08:39:07.835Z,20.40
2023-01-20T08:41:38.949Z,20.57
2023-01-20T08:44:09.372Z,19.83
2023-01-20T08:46:41.639Z,20.80
2023-01-20T08:49:12.653Z,19.10
2023-01-20T08:51:43.481Z,19.47
2023-01-20T08:54:12.612Z,18.90
2023-01-20T08:56:41.521Z,19.23
2023-01-20T08:59:10.432Z,19.20
2023-01-20T09:01:39.121Z,17.60
2023-01-20T09:04:08.195Z,19.10
2023-01-20T09:06:44.196Z,19.37
2023-01-20T09:09:14.030Z,18.00
2023-01-20T09:11:44.996Z,18.77
2023-01-20T09:14:13.529Z,16.20
2023-01-20T09:16:42.237Z,15.37
2023-01-20T09:19:10.721Z,16.37
2023-01-20T09:21:39.457Z,14.93
2023-01-20T09:24:10.197Z,16.03
2023-01-20T09:26:39.775Z,16.63
2023-01-20T09:29:11.383Z,16.90
2023-01-20T09:31:44.722Z,18.47
2023-01-20T09:34:16.523Z,17.63
2023-01-20T09:36:45.051Z,19.27
2023-01-20T09:39:33.619Z,18.93
2023-01-20T09:42:26.555Z,18.00
2023-01-20T09:45:03.669Z,17.47
2023-01-20T09:47:39.221Z,17.67
2023-01-20T09:50:40.104Z,18.33
2023-01-20T09:53:15.743Z,16.17
2023-01-20T09:55:52.686Z,15.67
2023-01-20T09:58:29.091Z,13.57
2023-01-20T10:01:11.829Z,15.10
2023-01-20T10:03:47.370Z,15.00
2023-01-20T10:06:27.715Z,14.83
2023-01-20T10:09:05.921Z,13.87
2023-01-20T10:11:39.846Z,14.67
2023-01-20T10:14:17.069Z,15.47
2023-01-20T10:16:51.889Z,14.00
2023-01-20T10:19:27.182Z,14.93
2023-01-20T10:22:05.088Z,15.23
2023-01-20T10:24:38.057Z,14.63
2023-01-20T10:27:08.711Z,14.03
2023-01-20T10:29:45.287Z,15.20
2023-01-20T10:32:20.887Z,14.50
2023-01-20T10:34:55.578Z,12.97
2023-01-20T10:37:25.914Z,13.90
2023-01-20T10:39:58.454Z,13.80
2023-01-20T10:42:29.532Z,13.93
2023-01-20T10:45:00.897Z,15.27
2023-01-20T10:47:42.069Z,15.00
2023-01-20T10:50:36.393Z,14.63
2023-01-20T10:53:26.388Z,13.60
2023-01-20T10:56:03.556Z,12.47
2023-01-20T10:58:37.090Z,12.83
2023-01-20T11:01:09.082Z,12.23
2023-01-20T11:03:42.092Z,13.10
2023-01-20T11:06:18.477Z,12.53
2023-01-20T11:08:47.086Z,13.17
2023-01-20T11:11:19.001Z,12.97
2023-01-20T11:13:51.671Z,11.47
2023-01-20T11:16:24.827Z,12.67
2023-01-20T11:19:00.144Z,12.23
2023-01-20T11:21:30.934Z,12.67
2023-01-20T11:24:01.210Z,12.60
2023-01-20T11:26:32.514Z,13.13
2023-01-20T11:29:23.951Z,14.70
2023-01-20T11:31:55.252Z,13.20
2023-01-20T11:34:26.767Z,12.57
2023-01-20T11:37:19.962Z,12.23
2023-01-20T11:40:01.165Z,12.93
2023-01-20T11:42:31.569Z,13.00
2023-01-20T11:45:20.273Z,13.27
2023-01-20T11:48:01.917Z,13.60
2023-01-20T11:50:37.531Z,13.07
2023-01-20T11:53:24.526Z,12.57
2023-01-20T11:55:55.549Z,12.10
2023-01-20T11:58:25.900Z,12.63
2023-01-20T12:01:02.254Z,12.07
2023-01-20T12:03:54.049Z,12.77
2023-01-20T12:06:26.913Z,11.80
2023-01-20T12:09:00.900Z,11.63
2023-01-20T12:11:33.896Z,11.80
2023-01-20T12:14:23.423Z,11.80
2023-01-20T12:17:04.929Z,11.77
2023-01-20T12:19:42.194Z,11.47
2023-01-20T12:22:14.730Z,11.60
2023-01-20T12:25:13.256Z,10.60
2023-01-20T12:27:50.432Z,11.07
2023-01-20T12:30:39.433Z,11.07
2023-01-20T12:33:18.659Z,10.80
2023-01-20T12:36:09.662Z,10.57
2023-01-20T12:38:48.853Z,10.93
2023-01-20T12:41:31.356Z,10.53
2023-01-20T12:44:10.393Z,10.30
2023-01-20T12:46:43.752Z,9.93
2023-01-20T12:49:36.025Z,10.77
2023-01-20T12:52:25.485Z,10.70
2023-01-20T12:55:10.658Z,12.10
2023-01-20T12:58:01.842Z,10.20
2023-01-20T13:00:49.075Z,11.50
2023-01-20T13:03:55.425Z,10.87
2023-01-20T13:06:50.623Z,11.37
2023-01-20T13:09:32.611Z,12.97
2023-01-20T13:12:11.224Z,11.90
2023-01-20T13:14:44.414Z,11.33
2023-01-20T13:17:24.398Z,11.60
2023-01-20T13:19:58.075Z,11.33
2023-01-20T13:22:28.335Z,10.80
2023-01-20T13:24:59.415Z,11.30
2023-01-20T13:27:30.604Z,10.03
2023-01-20T13:30:00.891Z,10.23
2023-01-20T13:32:38.029Z,9.53
2023-01-20T13:35:45.156Z,9.03
2023-01-20T13:38:23.916Z,9.90
2023-01-20T13:40:58.837Z,10.70
2023-01-20T13:43:50.820Z,10.00
2023-01-20T13:46:43.287Z,9.40
2023-01-20T13:49:29.149Z,9.33
2023-01-20T13:51:58.214Z,9.90
2023-01-20T13:54:42.428Z,9.97
2023-01-20T13:57:38.782Z,11.00
2023-01-20T14:00:19.285Z,10.50
2023-01-20T14:02:53.218Z,10.47
2023-01-20T14:05:33.603Z,11.77
2023-01-20T14:08:02.388Z,11.37
2023-01-20T14:10:33.383Z,11.83
2023-01-20T14:13:02.276Z,11.40
2023-01-20T14:15:36.198Z,11.43
2023-01-20T14:18:06.122Z,11.47
2023-01-20T14:20:37.449Z,12.13
2023-01-20T14:23:41.674Z,12.13
2023-01-20T14:26:13.813Z,12.67
2023-01-20T14:28:47.464Z,14.70
2023-01-20T14:31:34.026Z,13.13
2023-01-20T14:34:05.249Z,13.33
2023-01-20T14:36:34.794Z,14.10
2023-01-20T14:39:07.232Z,13.90
2023-01-20T14:41:48.600Z,14.10
2023-01-20T14:44:20.229Z,13.10
2023-01-20T14:46:51.326Z,13.20
2023-01-20T14:49:21.817Z,13.30
2023-01-20T14:51:52.311Z,13.57
2023-01-20T14:54:32.002Z,14.27
2023-01-20T14:57:22.981Z,14.27
2023-01-20T15:00:04.775Z,14.53
2023-01-20T15:02:36.131Z,14.33
2023-01-20T15:05:20.663Z,13.73
2023-01-20T15:07:49.440Z,15.03
2023-01-20T15:10:19.769Z,15.00
2023-01-20T15:12:56.237Z,14.10
2023-01-20T15:15:31.077Z,14.30
2023-01-20T15:18:22.386Z,14.07
2023-01-20T15:21:03.850Z,14.33
2023-01-20T15:23:42.089Z,14.97
2023-01-20T15:26:12.585Z,14.03
2023-01-20T15:28:45.818Z,13.97
2023-01-20T15:31:16.159Z,13.60
2023-01-20T15:33:45.332Z,12.77
2023-01-20T15:36:23.562Z,13.30
2023-01-20T15:38:55.818Z,14.47
2023-01-20T15:41:24.609Z,14.23
2023-01-20T15:43:54.834Z,13.73
2023-01-20T15:46:23.499Z,12.50
2023-01-20T15:48:52.187Z,16.70
2023-01-20T15:51:21.536Z,16.40
2023-01-20T15:53:50.128Z,17.57
2023-01-20T15:56:22.638Z,15.27
2023-01-20T15:58:51.668Z,13.37
2023-01-20T16:01:25.150Z,14.90
2023-01-20T16:03:55.103Z,14.83
2023-01-20T16:06:27.654Z,17.43
2023-01-20T16:08:56.233Z,15.37
2023-01-20T16:11:24.912Z,15.03
2023-01-20T16:13:53.733Z,16.43
2023-01-20T16:16:26.805Z,15.97
2023-01-20T16:19:00.534Z,13.40
2023-01-20T16:21:29.323Z,15.20
2023-01-20T16:23:57.843Z,16.63
2023-01-20T16:26:28.109Z,16.90
2023-01-20T16:28:58.824Z,16.57
2023-01-20T16:31:29.908Z,16.70
2023-01-20T16:33:58.622Z,16.90
2023-01-20T16:36:27.395Z,17.20
2023-01-20T16:38:56.453Z,16.80
2023-01-20T16:41:26.548Z,17.37
2023-01-20T16:43:56.886Z,17.77
2023-01-20T16:46:27.196Z,18.37
2023-01-20T16:48:59.552Z,19.37
2023-01-20T16:51:29.139Z,20.40
2023-01-20T16:53:58.888Z,20.13
2023-01-20T16:56:29.069Z,20.20
2023-01-20T16:58:59.761Z,20.30
2023-01-20T17:01:29.222Z,20.77
2023-01-20T17:04:00.951Z,20.50
2023-01-20T17:06:31.731Z,20.27
2023-01-20T17:09:02.089Z,21.83
2023-01-20T17:11:33.519Z,20.83
2023-01-20T17:14:03.922Z,22.87
2023-01-20T17:16:32.969Z,26.17
2023-01-20T17:19:05.245Z,28.73
2023-01-20T17:21:38.227Z,25.47
2023-01-20T17:24:07.407Z,26.80
2023-01-20T17:26:37.214Z,25.00
2023-01-20T17:29:07.182Z,26.20
2023-01-20T17:31:37.161Z,24.30
2023-01-20T17:34:08.569Z,23.83
2023-01-20T17:36:38.759Z,23.47
2023-01-20T17:39:08.202Z,23.60
2023-01-20T17:41:36.803Z,23.90
2023-01-20T17:44:07.304Z,23.33
2023-01-20T17:46:35.931Z,23.73
2023-01-20T17:49:06.916Z,27.87
2023-01-20T17:51:37.162Z,23.47
2023-01-20T17:54:05.955Z,21.63
2023-01-20T17:56:34.827Z,21.93
2023-01-20T17:59:03.717Z,19.80
2023-01-20T18:01:33.508Z,20.73
2023-01-20T18:04:04.493Z,21.87
2023-01-20T18:06:35.399Z,21.00
2023-01-20T18:09:32.941Z,21.37
2023-01-20T18:12:01.691Z,20.97
2023-01-20T18:14:30.423Z,22.47
2023-01-20T18:16:59.112Z,22.90
2023-01-20T18:19:28.048Z,22.27
2023-01-20T18:21:57.030Z,22.60
2023-01-20T18:24:26.183Z,22.60
2023-01-20T18:27:02.304Z,20.67
2023-01-20T18:29:30.889Z,22.30
2023-01-20T18:31:59.631Z,23.87
2023-01-20T18:34:28.508Z,23.93
2023-01-20T18:36:57.249Z,21.63
2023-01-20T18:39:27.201Z,22.43
2023-01-20T18:41:56.223Z,22.80
2023-01-20T18:44:29.611Z,23.20
2023-01-20T18:46:58.464Z,20.87
2023-01-20T18:49:27.148Z,20.70
2023-01-20T18:52:26.139Z,22.67
2023-01-20T18:55:19.446Z,23.73
2023-01-20T18:57:48.031Z,22.77
2023-01-20T19:01:11.200Z,21.47
2023-01-20T19:04:35.766Z,22.43
2023-01-20T19:07:07.303Z,22.23
2023-01-20T19:10:01.764Z,24.30
2023-01-20T19:12:31.970Z,23.27
2023-01-20T19:19:12.103Z,20.07
2023-01-20T19:21:40.922Z,20.07
2023-01-20T19:24:18.857Z,21.07
2023-01-20T19:26:47.959Z,20.63
2023-01-20T19:29:17.397Z,22.33
2023-01-20T19:31:46.252Z,21.93
2023-01-20T19:34:15.048Z,22.47
2023-01-20T19:36:43.687Z,22.77
2023-01-20T19:39:13.841Z,21.40
2023-01-20T19:41:43.888Z,22.67
2023-01-20T19:44:13.714Z,21.87
2023-01-20T19:46:44.369Z,23.30
2023-01-20T19:49:13.622Z,24.17
2023-01-20T19:51:42.307Z,22.90
2023-01-20T19:54:15.196Z,24.23
2023-01-20T19:56:43.805Z,24.37
2023-01-20T19:59:13.586Z,23.73
2023-01-20T20:01:42.643Z,25.27
2023-01-20T20:04:13.077Z,26.87
2023-01-20T20:06:47.952Z,27.17
2023-01-20T20:09:20.247Z,28.00
2023-01-20T20:11:49.376Z,29.17
2023-01-20T20:14:19.527Z,31.83
2023-01-20T20:16:49.087Z,32.80
2023-01-20T20:19:19.098Z,31.50
2023-01-20T20:21:47.983Z,31.13
2023-01-20T20:24:19.735Z,31.83
2023-01-20T20:26:49.283Z,30.73
2023-01-20T20:29:19.872Z,30.87
2023-01-20T20:31:48.789Z,30.50
2023-01-20T20:34:19.079Z,30.70
2023-01-20T20:36:47.961Z,32.13
2023-01-20T20:39:20.578Z,32.43
2023-01-20T20:41:49.298Z,36.03
2023-01-20T20:44:17.911Z,32.07
2023-01-20T20:46:46.710Z,30.40
2023-01-20T20:49:16.938Z,29.60
2023-01-20T20:51:45.721Z,30.93
2023-01-20T20:54:17.132Z,30.07
2023-01-20T20:56:47.409Z,29.70
2023-01-20T20:59:16.034Z,30.63
2023-01-20T21:01:44.874Z,30.03
2023-01-20T21:04:13.525Z,30.43
2023-01-20T21:06:42.263Z,30.03
2023-01-20T21:09:12.916Z,28.87
2023-01-20T21:11:43.200Z,27.37
2023-01-20T21:14:13.449Z,27.33
2023-01-20T21:16:42.290Z,29.03
2023-01-20T21:19:10.762Z,27.87
2023-01-20T21:21:39.362Z,27.93
2023-01-20T21:24:10.281Z,25.63
2023-01-20T21:26:38.829Z,25.57
2023-01-20T21:29:07.358Z,25.50
2023-01-20T21:31:37.580Z,25.60
2023-01-20T21:34:06.895Z,25.33
2023-01-20T21:36:41.556Z,25.47
2023-01-20T21:39:13.380Z,27.13
2023-01-20T21:41:42.039Z,24.43
2023-01-20T21:44:30.153Z,23.90
2023-01-20T21:47:02.112Z,23.97
2023-01-20T21:49:47.795Z,25.07
2023-01-20T21:52:35.818Z,25.73
2023-01-20T21:55:05.378Z,25.77
2023-01-20T21:57:34.375Z,26.10
2023-01-20T22:00:04.637Z,24.37
2023-01-20T22:02:43.544Z,24.13
2023-01-20T22:05:12.815Z,25.40
2023-01-20T22:07:41.540Z,25.47
2023-01-20T22:10:11.851Z,24.27
2023-01-20T22:12:40.339Z,23.80
2023-01-20T22:15:10.036Z,23.77
2023-01-20T22:17:38.506Z,25.13
2023-01-20T22:20:09.811Z,26.60
2023-01-20T22:22:38.462Z,24.93
2023-01-20T22:25:07.872Z,24.27
2023-01-20T22:27:36.464Z,24.03
2023-01-20T22:30:05.545Z,24.97
2023-01-20T22:32:34.126Z,24.33
2023-01-20T22:35:02.730Z,25.67
2023-01-20T22:37:33.958Z,26.03
2023-01-20T22:40:05.283Z,25.17
2023-01-20T22:42:33.829Z,24.53
2023-01-20T22:45:02.500Z,24.97
2023-01-20T22:47:31.248Z,24.70
2023-01-20T22:49:59.850Z,26.23
2023-01-20T22:52:28.615Z,24.33
2023-01-20T22:54:58.722Z,24.57
2023-01-20T22:57:27.442Z,24.83
2023-01-20T22:59:56.002Z,23.57
2023-01-20T23:02:24.723Z,22.20
2023-01-20T23:04:53.683Z,23.10
2023-01-20T23:07:22.269Z,23.17
2023-01-20T23:09:51.240Z,23.63
2023-01-20T23:12:21.251Z,20.37
2023-01-20T23:15:02.718Z,21.80
2023-01-20T23:17:32.457Z,21.07
2023-01-20T23:20:01.012Z,22.47
2023-01-20T23:22:30.890Z,21.17
2023-01-20T23:24:59.484Z,21.00
2023-01-20T23:27:29.578Z,22.40
2023-01-20T23:29:58.173Z,21.57
2023-01-20T23:32:26.953Z,21.13
2023-01-20T23:34:55.516Z,22.07
2023-01-20T23:37:24.152Z,23.07
2023-01-20T23:39:53.162Z,22.83
2023-01-20T23:42:21.628Z,21.70
2023-01-20T23:44:51.934Z,22.63
2023-01-20T23:47:20.465Z,22.30
2023-01-20T23:49:49.216Z,22.57
2023-01-20T23:52:17.989Z,22.70
2023-01-20T23:54:46.625Z,22.20
2023-01-20T23:57:15.164Z,22.23
2023-01-20T23:59:44.829Z,24.07
